Terminal Aerodrome Forecast
Issued by NWS Wilmington, OH

Current Version | Previous Version | Text Only | Print | Product List | Glossary Off
Versions: 1 2 3 4 5 6 7 8 9 10 11 12 13 14 15 16 17 18 19 20 21 22 23

788
FTUS41 KILN 181139
TAFDAY
TAF
KDAY 181139Z 1812/1912 21009KT P6SM SCT150 BKN250
     FM181400 23012KT P6SM BKN250
     FM190100 23008KT P6SM SCT012 BKN050
     FM190600 25005KT 5SM BR BKN010=

USA.gov is the U.S. government's official web portal to all federal, state and local government web resources and services.